Time;durP1;ratioP1;P1;durP2;ratioP2;P2;SDS_P1;SDS_P2;PMS_P1;PMS_P2;Temp;Humidity;BMP_temperature;BMP_pressure;BME280_temperature;BME280_humidity;BME280_pressure;Samples;Min_cycle;Max_cycle;Signal;HPM_P1;HPM_P2
2022/01/06 00:00:28;;;;;;;6.13;2.80;;;3.50;81.40;;;3.54;63.63;97318.97;5006443;28;20064;-47
2022/01/06 00:02:56;;;;;;;10.33;3.77;;;3.40;81.70;;;3.60;63.29;97320.28;5007015;28;20049;-47
2022/01/06 00:05:25;;;;;;;7.23;2.90;;;3.50;81.90;;;3.59;63.25;97325.66;5006477;28;20045;-49
2022/01/06 00:07:53;;;;;;;8.60;2.50;;;3.50;81.50;;;3.63;63.83;97320.03;5006927;28;20366;-50
2022/01/06 00:10:23;;;;;;;8.90;4.00;;;3.60;81.30;;;3.55;63.79;97318.03;5006720;28;20046;-49
2022/01/06 00:13:07;;;;;;;5.07;2.47;;;3.50;81.50;;;3.55;63.66;97325.94;5005527;28;20064;-50
2022/01/06 00:15:44;;;;;;;4.80;2.57;;;3.40;81.30;;;3.54;63.90;97321.59;5006232;28;20049;-48
2022/01/06 00:18:32;;;;;;;6.07;2.57;;;3.40;82.00;;;3.57;63.65;97338.97;5005273;28;20052;-48
2022/01/06 00:23:47;;;;;;;7.03;3.37;;;3.30;82.30;;;3.51;63.93;97332.41;5009856;28;20059;-49
2022/01/06 00:26:14;;;;;;;8.30;2.97;;;3.30;82.80;;;3.55;63.51;97333.00;5009776;28;20064;-51
2022/01/06 00:28:42;;;;;;;5.70;2.57;;;3.40;82.60;;;3.60;63.40;97336.06;5009690;28;20056;-49
2022/01/06 00:31:10;;;;;;;8.40;2.90;;;3.50;82.60;;;3.65;63.83;97336.53;5009217;28;20049;-49
2022/01/06 00:33:38;;;;;;;6.17;2.77;;;3.50;81.90;;;3.72;63.38;97331.59;5010370;28;20056;-48
2022/01/06 00:36:06;;;;;;;7.10;2.87;;;3.60;82.10;;;3.69;63.58;97332.69;5010358;28;20056;-48
2022/01/06 00:38:33;;;;;;;6.83;3.23;;;3.50;82.00;;;3.68;63.12;97319.66;5010066;28;20050;-50
2022/01/06 00:41:01;;;;;;;6.27;2.70;;;3.60;81.90;;;3.70;63.46;97323.84;5010325;28;20054;-48
2022/01/06 00:43:30;;;;;;;6.73;2.70;;;3.60;81.80;;;3.67;63.81;97318.00;5009861;28;20045;-51
2022/01/06 00:45:58;;;;;;;5.50;2.70;;;3.50;81.80;;;3.62;63.91;97326.25;5009598;28;20053;-49
2022/01/06 00:48:26;;;;;;;8.07;3.27;;;3.50;81.50;;;3.60;63.59;97328.16;5009981;28;20058;-46
2022/01/06 00:50:54;;;;;;;6.20;2.77;;;3.50;82.30;;;3.52;64.22;97330.59;5009175;28;20057;-47
2022/01/06 00:53:22;;;;;;;5.50;3.17;;;3.40;82.10;;;3.53;64.20;97333.13;5009385;28;20061;-49
2022/01/06 00:55:49;;;;;;;6.40;3.70;;;3.40;82.60;;;3.56;63.96;97334.66;5008065;28;20109;-47
2022/01/06 00:58:18;;;;;;;5.93;3.03;;;3.40;82.80;;;3.57;64.17;97333.72;5008974;28;20050;-50
2022/01/06 01:00:46;;;;;;;6.80;2.40;;;3.50;82.60;;;3.67;63.83;97342.50;5009662;28;20174;-48
2022/01/06 01:03:20;;;;;;;6.37;2.90;;;3.60;82.50;;;3.60;64.19;97343.97;5010096;28;20387;-49
2022/01/06 01:05:53;;;;;;;9.85;2.92;;;3.50;82.40;;;3.58;64.08;97343.25;5009460;28;20393;-47
2022/01/06 01:08:21;;;;;;;7.33;3.13;;;3.50;82.60;;;3.63;64.10;97351.63;5009871;28;20364;-49
2022/01/06 01:10:52;;;;;;;5.77;2.90;;;3.50;82.70;;;3.56;64.50;97353.06;5008168;28;20052;-49
2022/01/06 01:13:28;;;;;;;4.50;2.47;;;3.50;83.40;;;3.59;64.54;97354.63;5008629;28;20344;-48
2022/01/06 01:16:05;;;;;;;8.07;3.50;;;3.50;84.30;;;3.61;64.79;97352.72;5009368;28;20356;-47
2022/01/06 01:18:33;;;;;;;7.47;2.67;;;3.50;84.40;;;3.52;64.57;97355.13;5008382;28;20046;-47
2022/01/06 01:21:01;;;;;;;4.90;2.60;;;3.50;84.90;;;3.56;65.30;97368.88;5008509;28;20087;-48
2022/01/06 01:23:28;;;;;;;7.93;3.17;;;3.50;85.30;;;3.50;65.25;97369.38;5009332;28;20068;-49
2022/01/06 01:25:56;;;;;;;8.10;3.57;;;3.40;85.60;;;3.46;65.13;97365.31;5008695;28;20053;-48
2022/01/06 01:28:32;;;;;;;6.87;2.87;;;3.40;87.00;;;3.47;65.70;97378.38;5007949;28;20054;-48
2022/01/06 01:31:12;;;;;;;8.00;3.63;;;3.40;87.80;;;3.55;65.34;97381.22;5007253;28;20058;-48
2022/01/06 01:33:42;;;;;;;7.00;3.03;;;3.40;88.70;;;3.47;65.85;97370.47;5008444;28;20062;-48
2022/01/06 01:36:11;;;;;;;4.47;2.67;;;3.40;88.20;;;3.53;65.62;97369.97;5008511;28;20072;-49
2022/01/06 01:38:40;;;;;;;9.83;2.93;;;3.50;88.40;;;3.60;65.62;97377.38;5007801;28;20053;-48
2022/01/06 01:41:09;;;;;;;10.97;3.00;;;3.50;88.10;;;3.58;65.98;97379.28;5009647;28;20500;-47
2022/01/06 01:43:38;;;;;;;5.60;2.70;;;3.60;87.90;;;3.64;65.44;97381.41;5009428;28;20054;-47
2022/01/06 01:46:13;;;;;;;11.77;3.47;;;3.60;87.70;;;3.62;65.70;97383.34;5009454;28;20050;-51
2022/01/06 01:49:13;;;;;;;6.00;3.30;;;3.60;87.90;;;3.55;66.01;97386.47;5009043;28;20524;-46
2022/01/06 01:51:32;;;;;;;5.57;2.80;;;3.50;89.10;;;3.48;66.16;97384.44;5005627;28;20344;-49
2022/01/06 01:54:01;;;;;;;10.93;2.93;;;3.40;89.30;;;3.55;65.91;97386.47;5007790;28;20058;-49
2022/01/06 01:56:29;;;;;;;7.10;2.93;;;3.50;89.70;;;3.56;65.57;97392.56;5008905;28;20068;-48
2022/01/06 01:58:58;;;;;;;11.63;3.70;;;3.50;89.10;;;3.42;66.19;97393.69;5007600;28;20062;-49
2022/01/06 02:01:26;;;;;;;5.70;3.50;;;3.40;89.70;;;3.51;65.92;97392.13;5008629;28;20049;-51
2022/01/06 02:03:54;;;;;;;6.97;3.47;;;3.40;90.00;;;3.40;66.65;97402.66;5006454;28;20065;-47
2022/01/06 02:06:22;;;;;;;5.27;3.03;;;3.30;90.50;;;3.40;66.16;97392.97;5008558;28;20343;-47
2022/01/06 02:08:54;;;;;;;6.07;2.83;;;3.30;90.90;;;3.40;66.47;97397.41;5005265;28;20050;-47
2022/01/06 02:11:22;;;;;;;9.20;4.20;;;3.30;91.30;;;3.41;66.43;97402.50;5007616;28;20229;-48
2022/01/06 02:13:53;;;;;;;7.70;3.10;;;3.30;91.80;;;3.47;66.85;97399.41;5007139;28;20057;-46
2022/01/06 02:16:25;;;;;;;8.37;4.00;;;3.40;91.80;;;3.57;66.17;97396.88;5007453;28;20056;-49
2022/01/06 02:18:54;;;;;;;6.00;2.50;;;3.50;91.50;;;3.62;65.98;97391.22;5006191;28;20084;-52
2022/01/06 02:21:22;;;;;;;5.60;2.63;;;3.50;91.00;;;3.66;65.73;97393.47;5006195;28;20068;-47
2022/01/06 02:23:50;;;;;;;3.43;2.43;;;3.60;89.70;;;3.69;65.56;97406.41;5006760;28;20057;-47
2022/01/06 02:26:18;;;;;;;5.37;2.70;;;3.60;89.40;;;3.66;65.54;97404.00;5005638;28;20056;-48
2022/01/06 02:28:46;;;;;;;8.23;3.57;;;3.50;89.60;;;3.65;65.36;97407.63;5006797;28;20450;-51
2022/01/06 02:31:13;;;;;;;5.43;2.93;;;3.50;90.10;;;3.59;65.41;97404.63;5008523;28;20050;-48
2022/01/06 02:33:42;;;;;;;7.70;3.27;;;3.40;89.70;;;3.55;65.16;97407.53;5006517;28;20080;-46
2022/01/06 02:36:09;;;;;;;7.77;3.80;;;3.30;90.40;;;3.38;66.04;97404.59;5006764;28;20046;-51
2022/01/06 02:38:37;;;;;;;5.27;3.33;;;3.20;91.00;;;3.45;66.36;97403.13;5006833;28;20050;-50
2022/01/06 02:41:05;;;;;;;8.47;3.53;;;3.20;91.60;;;3.43;65.90;97400.63;5007929;28;20050;-47
2022/01/06 02:43:34;;;;;;;7.37;3.17;;;3.30;91.70;;;3.40;65.98;97392.13;5005822;28;20042;-50
2022/01/06 02:46:02;;;;;;;7.10;2.60;;;3.30;91.60;;;3.32;66.58;97401.47;5007223;28;20343;-52
2022/01/06 02:48:31;;;;;;;5.07;2.80;;;3.20;92.00;;;3.29;66.52;97412.22;5006480;28;20058;-47
2022/01/06 02:50:58;;;;;;;7.83;3.10;;;3.20;92.50;;;3.25;66.58;97418.69;5007177;28;20054;-47
2022/01/06 02:53:26;;;;;;;5.37;2.63;;;3.10;93.10;;;3.26;67.01;97430.06;5007033;28;20055;-49
2022/01/06 02:55:54;;;;;;;7.80;2.53;;;3.20;93.70;;;3.22;66.80;97429.47;5006344;28;20356;-46
2022/01/06 02:58:42;;;;;;;9.60;2.47;;;3.10;94.30;;;3.31;66.85;97441.06;5006895;28;20371;-47
2022/01/06 03:01:10;;;;;;;5.47;2.50;;;3.20;94.20;;;3.22;67.27;97445.25;5008423;28;20516;-50
2022/01/06 03:03:38;;;;;;;3.90;2.27;;;3.10;95.30;;;3.22;67.72;97458.41;5006364;28;20056;-48
2022/01/06 03:06:05;;;;;;;7.90;3.40;;;3.10;97.30;;;3.11;68.32;97458.41;5006650;28;20251;-50
2022/01/06 03:08:34;;;;;;;5.77;2.87;;;3.10;99.90;;;3.10;68.81;97454.94;5006158;28;20046;-51
2022/01/06 03:11:02;;;;;;;7.80;3.30;;;3.10;99.90;;;3.19;68.16;97448.13;5007218;28;20045;-48
2022/01/06 03:13:30;;;;;;;7.90;3.30;;;3.10;99.90;;;3.22;68.43;97449.66;5007607;28;20368;-48
2022/01/06 03:15:59;;;;;;;6.60;2.87;;;3.10;99.90;;;3.23;68.41;97453.97;5007254;28;20049;-47
2022/01/06 03:18:27;;;;;;;8.57;3.63;;;3.10;99.90;;;3.22;68.72;97460.19;5005819;28;20336;-48
2022/01/06 03:20:55;;;;;;;8.30;2.97;;;3.10;99.90;;;3.27;68.91;97458.88;5007435;28;20072;-49
2022/01/06 03:23:23;;;;;;;5.27;2.53;;;3.20;99.90;;;3.30;68.38;97458.66;5006895;28;20057;-50
2022/01/06 03:25:50;;;;;;;5.40;3.00;;;3.20;99.90;;;3.35;68.55;97463.53;5006097;28;20050;-50
2022/01/06 03:28:18;;;;;;;4.87;2.80;;;3.20;99.90;;;3.41;68.28;97470.94;5006702;28;20281;-48
2022/01/06 03:30:46;;;;;;;7.37;4.00;;;3.30;99.90;;;3.45;68.27;97475.03;5007321;28;20049;-48
2022/01/06 03:33:14;;;;;;;4.80;3.07;;;3.40;99.90;;;3.44;68.50;97469.88;5006697;28;20054;-47
2022/01/06 03:35:42;;;;;;;7.33;3.20;;;3.40;99.90;;;3.38;68.30;97476.47;5006934;28;20066;-47
2022/01/06 03:38:10;;;;;;;6.27;3.00;;;3.30;99.90;;;3.42;68.55;97466.53;5006913;28;20064;-48
2022/01/06 03:40:39;;;;;;;7.33;3.23;;;3.30;99.90;;;3.46;68.26;97466.16;5007080;28;20575;-46
2022/01/06 03:43:08;;;;;;;4.93;2.77;;;3.40;99.90;;;3.52;68.17;97475.38;5006707;28;20054;-47
2022/01/06 03:45:36;;;;;;;5.03;3.20;;;3.40;99.90;;;3.42;68.05;97477.06;5007519;28;20045;-46
2022/01/06 03:48:05;;;;;;;7.70;3.27;;;3.30;99.90;;;3.29;68.60;97474.53;5005697;28;20056;-47
2022/01/06 03:50:32;;;;;;;7.10;3.63;;;3.20;99.90;;;3.34;68.92;97469.78;5007262;28;20370;-47
2022/01/06 03:53:00;;;;;;;9.00;3.83;;;3.20;99.90;;;3.39;68.56;97472.03;5006424;28;20056;-47
2022/01/06 03:55:28;;;;;;;8.80;3.60;;;3.20;99.90;;;3.43;68.24;97476.94;5006772;28;20372;-50
2022/01/06 03:57:56;;;;;;;9.80;3.10;;;3.30;99.90;;;3.29;68.93;97477.19;5008520;28;20364;-48
2022/01/06 04:00:24;;;;;;;6.83;3.37;;;3.20;99.90;;;3.30;68.68;97481.50;5011425;28;20053;-48
2022/01/06 04:02:52;;;;;;;6.53;3.47;;;3.10;99.90;;;3.28;68.85;97491.31;5009227;28;20628;-47
2022/01/06 04:05:20;;;;;;;6.27;3.23;;;3.10;99.90;;;3.22;69.05;97489.13;5010867;28;20473;-48
2022/01/06 04:07:47;;;;;;;6.27;3.40;;;3.10;99.90;;;3.19;69.03;97481.50;5009513;28;20058;-48
2022/01/06 04:10:15;;;;;;;6.83;3.40;;;3.00;99.90;;;3.09;69.42;97494.50;5011829;28;20046;-47
2022/01/06 04:12:43;;;;;;;6.03;3.20;;;3.00;99.90;;;3.08;69.62;97498.94;5009731;28;20340;-48
2022/01/06 04:15:13;;;;;;;6.73;2.97;;;3.00;99.90;;;3.05;69.61;97496.53;5009624;28;20048;-49
2022/01/06 04:17:42;;;;;;;8.87;4.40;;;3.00;99.90;;;3.12;69.48;97491.63;5009937;28;20062;-48
2022/01/06 04:20:12;;;;;;;9.13;3.47;;;3.00;99.90;;;3.09;69.82;97499.78;5009774;28;20263;-48
2022/01/06 04:22:42;;;;;;;8.57;3.70;;;3.10;99.90;;;3.13;69.90;97503.84;5009479;28;20064;-49
2022/01/06 04:25:12;;;;;;;6.13;3.50;;;3.10;99.90;;;3.19;69.38;97494.66;5009356;28;20056;-48
2022/01/06 04:27:40;;;;;;;9.37;3.23;;;3.10;99.90;;;3.15;69.69;97505.38;5009436;28;20049;-47
2022/01/06 04:30:09;;;;;;;8.90;3.40;;;3.10;99.90;;;3.12;70.17;97507.41;5010216;28;20050;-47
2022/01/06 04:32:38;;;;;;;5.60;2.97;;;3.00;99.90;;;3.00;70.56;97509.19;5008166;28;20037;-49
2022/01/06 04:35:08;;;;;;;6.20;3.20;;;2.90;99.90;;;3.01;70.26;97512.69;5010929;28;20066;-47
2022/01/06 04:37:37;;;;;;;9.37;4.37;;;2.80;99.90;;;3.08;70.01;97508.59;5009339;28;20054;-48
2022/01/06 04:40:07;;;;;;;8.87;3.97;;;2.90;99.90;;;3.09;70.16;97512.94;5010644;28;20251;-47
2022/01/06 04:42:35;;;;;;;5.80;2.53;;;2.90;99.90;;;2.98;70.58;97508.47;5009784;28;20394;-48
2022/01/06 04:45:04;;;;;;;9.67;4.23;;;2.80;99.90;;;3.08;70.35;97509.47;5009634;28;20056;-49
2022/01/06 04:47:32;;;;;;;7.30;3.80;;;2.90;99.90;;;3.07;70.18;97518.31;5009734;28;20060;-51
2022/01/06 04:50:00;;;;;;;9.27;3.90;;;2.90;99.90;;;3.16;69.99;97516.78;5009125;28;20425;-47
2022/01/06 04:52:27;;;;;;;9.70;4.53;;;3.00;99.90;;;3.21;69.73;97517.22;5009103;28;20471;-47
2022/01/06 04:54:55;;;;;;;8.00;3.53;;;3.10;99.90;;;3.21;69.53;97527.75;5008115;28;20214;-50
2022/01/06 04:57:23;;;;;;;7.03;3.77;;;3.10;99.90;;;3.20;69.81;97528.72;5008668;28;20060;-50
2022/01/06 04:59:51;;;;;;;6.57;3.43;;;3.10;99.90;;;3.13;69.83;97527.50;5009758;28;20065;-47
2022/01/06 05:02:19;;;;;;;7.50;3.07;;;3.10;99.90;;;3.12;70.10;97531.94;5009573;28;20055;-49
2022/01/06 05:04:47;;;;;;;8.30;3.57;;;3.00;99.90;;;3.11;70.00;97538.16;5010138;28;20050;-50
2022/01/06 05:07:15;;;;;;;6.20;3.30;;;3.00;99.90;;;3.22;69.88;97541.75;5009629;28;20053;-48
2022/01/06 05:09:42;;;;;;;7.03;3.63;;;3.10;99.90;;;3.15;69.15;97541.38;5007714;28;20049;-48
2022/01/06 05:12:10;;;;;;;6.30;4.40;;;3.10;99.90;;;3.11;69.71;97538.16;5007980;28;20279;-49
2022/01/06 05:14:39;;;;;;;9.87;3.50;;;3.00;99.90;;;3.17;69.29;97547.38;5009046;28;20170;-46
2022/01/06 05:17:08;;;;;;;8.57;3.60;;;3.00;99.90;;;3.12;69.85;97545.09;5009875;28;20048;-50
2022/01/06 05:19:36;;;;;;;8.63;3.27;;;3.00;99.90;;;3.05;70.10;97554.41;5008307;28;20233;-48
2022/01/06 05:22:04;;;;;;;10.33;3.70;;;2.90;99.90;;;3.07;70.10;97555.13;5009133;28;20080;-48
2022/01/06 05:24:33;;;;;;;6.17;3.77;;;2.90;99.90;;;3.02;69.85;97556.44;5008000;28;20332;-48
2022/01/06 05:27:01;;;;;;;6.53;3.10;;;2.80;99.90;;;3.01;69.84;97560.03;5007675;28;20248;-46
2022/01/06 05:29:29;;;;;;;7.07;3.67;;;2.80;99.90;;;3.03;69.98;97563.38;5008918;28;20254;-47
2022/01/06 05:31:57;;;;;;;7.97;4.13;;;2.80;99.90;;;2.99;70.04;97557.50;5008162;28;20049;-48
2022/01/06 05:34:25;;;;;;;5.83;3.43;;;2.80;99.90;;;3.00;70.23;97564.44;5008079;28;20060;-51
2022/01/06 05:36:53;;;;;;;9.77;4.20;;;2.90;99.90;;;3.10;69.93;97564.56;5008255;28;20056;-48
2022/01/06 05:39:20;;;;;;;9.80;3.83;;;3.00;99.90;;;3.10;70.08;97568.06;5009218;28;20332;-46
2022/01/06 05:41:48;;;;;;;8.50;3.90;;;3.00;99.90;;;3.10;69.79;97570.69;5008904;28;20458;-51
2022/01/06 05:44:16;;;;;;;10.77;5.37;;;3.00;99.90;;;3.17;70.07;97578.94;5007271;28;20064;-47
2022/01/06 05:46:45;;;;;;;10.83;4.00;;;3.10;99.90;;;3.26;69.23;97585.31;5008462;28;20057;-48
2022/01/06 05:49:15;;;;;;;8.07;3.73;;;3.10;99.90;;;3.28;69.47;97581.59;5008421;28;20046;-49
2022/01/06 05:51:43;;;;;;;7.67;3.57;;;3.20;99.90;;;3.35;69.67;97585.44;5009689;28;20065;-49
2022/01/06 05:54:11;;;;;;;9.60;3.50;;;3.20;99.90;;;3.37;69.79;97584.47;5009440;28;20053;-48
2022/01/06 05:56:38;;;;;;;6.47;3.50;;;3.20;99.90;;;3.44;69.09;97585.69;5008924;28;20352;-47
2022/01/06 05:59:06;;;;;;;6.13;3.30;;;3.30;99.90;;;3.46;69.21;97589.03;5008575;28;20060;-48
2022/01/06 06:01:34;;;;;;;9.07;3.63;;;3.30;99.90;;;3.51;69.17;97597.44;5008220;28;20233;-48
2022/01/06 06:04:02;;;;;;;5.53;3.30;;;3.30;99.90;;;3.49;69.00;97594.03;5007533;28;20038;-46
2022/01/06 06:06:30;;;;;;;7.63;3.97;;;3.30;99.90;;;3.53;69.45;97604.25;5007974;28;20059;-48
2022/01/06 06:08:58;;;;;;;10.07;4.77;;;3.40;99.90;;;3.50;68.65;97608.91;5007118;28;20046;-52
2022/01/06 06:11:25;;;;;;;6.53;3.40;;;3.40;99.90;;;3.46;69.17;97600.41;5007480;28;20488;-49
2022/01/06 06:13:53;;;;;;;9.17;4.03;;;3.30;99.90;;;3.45;69.05;97608.41;5007680;28;20240;-48
2022/01/06 06:16:21;;;;;;;4.70;3.20;;;3.30;99.90;;;3.46;69.39;97608.28;5008524;28;20046;-49
2022/01/06 06:18:49;;;;;;;8.90;3.77;;;3.30;99.90;;;3.37;69.16;97614.25;5008307;28;20050;-47
2022/01/06 06:21:17;;;;;;;8.83;3.47;;;3.20;99.90;;;3.36;69.29;97620.47;5007815;28;20061;-48
2022/01/06 06:23:45;;;;;;;5.90;3.87;;;3.20;99.90;;;3.18;69.87;97612.19;5007384;28;20049;-46
2022/01/06 06:26:12;;;;;;;7.37;3.80;;;3.10;99.90;;;3.22;69.48;97615.41;5007532;28;20370;-46
2022/01/06 06:28:40;;;;;;;6.33;3.40;;;3.10;99.90;;;3.25;69.89;97620.47;5007123;28;20068;-47
2022/01/06 06:31:08;;;;;;;8.17;3.80;;;3.10;99.90;;;3.17;69.91;97625.47;5007396;28;20050;-49
2022/01/06 06:33:36;;;;;;;6.30;3.30;;;3.10;99.90;;;3.17;70.03;97638.63;5006697;28;20056;-48
2022/01/06 06:36:04;;;;;;;11.30;4.50;;;3.00;99.90;;;3.15;70.40;97628.19;5007177;28;20054;-48
2022/01/06 06:38:32;;;;;;;10.17;4.20;;;3.00;99.90;;;3.22;70.02;97639.09;5008195;28;20068;-47
2022/01/06 06:41:00;;;;;;;11.57;3.83;;;3.10;99.90;;;3.27;69.82;97640.44;5006991;28;20064;-48
2022/01/06 06:43:28;;;;;;;7.93;3.90;;;3.20;99.90;;;3.37;69.60;97637.94;5007696;28;20363;-47
2022/01/06 06:45:56;;;;;;;8.40;3.53;;;3.20;99.90;;;3.41;69.80;97636.75;5007934;28;20049;-48
2022/01/06 06:48:25;;;;;;;6.13;3.57;;;3.30;99.90;;;3.47;69.71;97646.84;5006244;28;20046;-48
2022/01/06 06:50:53;;;;;;;9.77;4.00;;;3.40;99.90;;;3.46;69.66;97646.94;5006705;28;20056;-51
2022/01/06 06:53:20;;;;;;;12.30;3.90;;;3.40;99.90;;;3.52;69.34;97652.56;5007400;28;20250;-48
2022/01/06 06:55:48;;;;;;;10.27;3.90;;;3.40;99.90;;;3.47;69.20;97652.09;5006986;28;20076;-47
2022/01/06 06:58:16;;;;;;;9.13;3.63;;;3.30;99.90;;;3.49;69.45;97654.59;5008317;28;20058;-49
2022/01/06 07:00:44;;;;;;;10.07;4.00;;;3.40;99.90;;;3.51;69.03;97652.72;5008860;28;20272;-48
2022/01/06 07:03:12;;;;;;;8.73;5.37;;;3.40;99.90;;;3.52;69.11;97654.38;5006674;28;20391;-46
2022/01/06 07:05:40;;;;;;;9.67;4.07;;;3.40;99.90;;;3.53;69.12;97662.16;5007141;28;20057;-46
2022/01/06 07:08:07;;;;;;;6.23;3.70;;;3.40;99.90;;;3.57;69.08;97654.00;5006518;28;20046;-47
2022/01/06 07:10:35;;;;;;;7.23;3.90;;;3.40;99.90;;;3.55;69.08;97662.88;5007315;28;20078;-46
2022/01/06 07:13:03;;;;;;;9.63;4.10;;;3.40;99.90;;;3.52;69.44;97664.91;5006854;28;20257;-48
2022/01/06 07:15:33;;;;;;;9.17;3.97;;;3.30;99.90;;;3.45;69.37;97676.84;5006616;28;20062;-47
2022/01/06 07:18:01;;;;;;;8.10;3.63;;;3.30;99.90;;;3.31;69.76;97675.25;5007241;28;20048;-47
2022/01/06 07:20:29;;;;;;;12.47;4.50;;;3.20;99.90;;;3.33;68.69;97678.59;5006890;28;20048;-47
2022/01/06 07:22:57;;;;;;;12.53;5.07;;;3.10;99.90;;;3.29;69.27;97682.41;5007265;28;20057;-48
2022/01/06 07:25:24;;;;;;;6.60;4.20;;;3.10;99.90;;;3.38;69.46;97684.38;5006104;28;20053;-50
2022/01/06 07:27:52;;;;;;;9.90;4.50;;;3.10;99.90;;;3.34;69.11;97685.56;5006556;28;20189;-48
2022/01/06 07:30:20;;;;;;;9.53;4.87;;;3.10;99.90;;;3.38;68.92;97694.91;5008045;28;20386;-49
2022/01/06 07:32:51;;;;;;;10.93;4.80;;;3.10;99.90;;;3.38;69.58;97694.06;5008702;28;20057;-48
2022/01/06 07:35:21;;;;;;;12.50;5.87;;;3.10;99.90;;;3.38;69.64;97688.81;5011282;28;20053;-48
2022/01/06 07:37:49;;;;;;;8.03;4.30;;;3.20;99.90;;;3.39;69.47;97683.41;5010554;28;20348;-50
2022/01/06 07:40:19;;;;;;;10.17;4.60;;;3.20;99.90;;;3.34;69.70;97696.91;5012067;28;20054;-49
2022/01/06 07:42:48;;;;;;;12.03;4.57;;;3.10;99.90;;;3.34;69.51;97686.38;5009439;28;20058;-47
2022/01/06 07:45:18;;;;;;;7.13;4.33;;;3.10;99.90;;;3.40;68.75;97697.41;5010248;28;20300;-47
2022/01/06 07:48:02;;;;;;;8.13;4.60;;;3.10;99.90;;;3.42;68.76;97708.66;5011043;28;20062;-49
2022/01/06 07:50:33;;;;;;;12.57;5.03;;;3.10;99.90;;;3.41;68.93;97704.34;5010279;28;20056;-50
2022/01/06 07:53:01;;;;;;;8.70;4.27;;;3.10;99.90;;;3.38;68.86;97705.44;5008125;28;20064;-48
2022/01/06 07:55:29;;;;;;;8.23;4.67;;;3.10;99.90;;;3.37;68.97;97711.63;5011045;28;20057;-50
2022/01/06 07:57:58;;;;;;;7.83;4.87;;;3.10;99.90;;;3.28;69.11;97709.69;5008978;28;20054;-47
2022/01/06 08:00:27;;;;;;;8.13;5.47;;;3.00;99.90;;;3.28;69.40;97715.78;5010172;28;20258;-49
2022/01/06 08:02:55;;;;;;;10.20;5.53;;;3.00;99.90;;;3.25;69.30;97716.00;5009129;28;20056;-47
2022/01/06 08:05:26;;;;;;;7.70;5.17;;;3.00;99.90;;;3.21;69.30;97722.44;5009714;28;20162;-47
2022/01/06 08:07:55;;;;;;;11.57;4.97;;;3.00;99.90;;;3.10;70.00;97725.91;5008015;28;20260;-50
2022/01/06 08:10:24;;;;;;;8.20;4.13;;;2.80;99.90;;;3.07;69.78;97730.53;5009285;28;20046;-48
2022/01/06 08:12:51;;;;;;;7.77;4.23;;;2.80;99.90;;;3.00;70.41;97724.03;5007827;28;20052;-46
2022/01/06 08:15:20;;;;;;;9.00;4.30;;;2.80;99.90;;;3.05;70.00;97735.91;5007794;28;20467;-48
2022/01/06 08:17:48;;;;;;;8.20;5.30;;;2.80;99.90;;;2.94;70.22;97741.09;5008711;28;20563;-46
2022/01/06 08:20:16;;;;;;;8.07;4.83;;;2.80;99.90;;;2.86;70.61;97741.66;5010331;28;20061;-50
2022/01/06 08:22:44;;;;;;;12.57;5.43;;;2.60;99.90;;;2.83;70.95;97739.25;5009150;28;20064;-47
2022/01/06 08:25:12;;;;;;;12.33;5.37;;;2.60;99.90;;;2.82;70.73;97742.00;5009293;28;20063;-49
2022/01/06 08:27:40;;;;;;;8.47;5.27;;;2.60;99.90;;;2.72;71.66;97742.66;5008369;28;20062;-47
2022/01/06 08:30:09;;;;;;;8.53;4.47;;;2.60;99.90;;;2.73;71.37;97746.09;5009832;28;20623;-49
2022/01/06 08:32:37;;;;;;;10.43;5.23;;;2.60;99.90;;;2.78;71.53;97740.53;5007602;28;20054;-47
2022/01/06 08:35:05;;;;;;;10.07;5.00;;;2.60;99.90;;;2.80;71.39;97742.09;4991138;28;20056;-47
2022/01/06 08:37:35;;;;;;;8.73;5.10;;;2.70;99.90;;;2.82;71.43;97742.81;4989466;28;20053;-48
2022/01/06 08:40:05;;;;;;;8.40;5.13;;;2.70;99.90;;;2.84;71.48;97737.47;4990385;28;20058;-47
2022/01/06 08:42:34;;;;;;;11.13;5.53;;;2.70;99.90;;;2.74;72.05;97747.81;4988117;28;20050;-49
2022/01/06 08:45:03;;;;;;;12.33;5.13;;;2.70;99.90;;;2.87;71.69;97753.88;4988530;28;20061;-47
2022/01/06 08:47:31;;;;;;;8.53;4.70;;;2.70;99.90;;;2.87;72.06;97753.88;4989772;28;20341;-51
2022/01/06 08:49:59;;;;;;;8.60;4.40;;;2.80;99.90;;;2.86;71.71;97753.97;4990740;28;20051;-48
2022/01/06 08:52:27;;;;;;;14.77;5.50;;;2.80;99.90;;;2.89;71.93;97766.88;4988248;28;20046;-47
2022/01/06 08:54:55;;;;;;;10.63;4.60;;;2.80;99.90;;;2.91;71.91;97757.94;4988442;28;20060;-48
2022/01/06 08:57:24;;;;;;;9.10;5.20;;;2.90;99.90;;;3.00;71.55;97758.22;4988037;28;20260;-49
2022/01/06 08:59:52;;;;;;;10.67;5.17;;;2.90;99.90;;;3.01;71.97;97766.00;5001246;28;20056;-47
2022/01/06 09:02:20;;;;;;;9.20;4.77;;;3.00;99.90;;;3.05;71.84;97772.72;5018055;28;20054;-47
2022/01/06 09:04:47;;;;;;;9.93;5.27;;;3.00;99.90;;;3.11;71.69;97771.44;5018537;28;20045;-48
2022/01/06 09:07:15;;;;;;;12.40;4.13;;;3.10;99.90;;;3.04;71.63;97776.28;5017032;28;20084;-49
2022/01/06 09:09:43;;;;;;;6.43;3.37;;;3.00;99.90;;;2.95;71.77;97777.81;5018270;28;20041;-47
2022/01/06 09:12:18;;;;;;;7.70;3.90;;;3.00;99.90;;;3.04;71.38;97771.03;5015895;28;20050;-46
2022/01/06 09:14:46;;;;;;;9.57;3.57;;;3.00;99.90;;;3.05;71.44;97780.63;5019078;28;20049;-49
2022/01/06 09:17:15;;;;;;;11.60;4.17;;;3.00;99.90;;;3.06;71.32;97782.28;5016224;28;20362;-48
2022/01/06 09:19:43;;;;;;;10.67;4.40;;;3.00;99.90;;;3.09;71.10;97779.44;5010114;28;20484;-47
2022/01/06 09:22:11;;;;;;;9.37;4.33;;;3.00;99.90;;;3.08;71.26;97783.03;5009294;28;20252;-48
2022/01/06 09:24:39;;;;;;;9.03;4.13;;;3.00;99.90;;;3.08;71.04;97790.06;5007581;28;20050;-49
2022/01/06 09:27:07;;;;;;;8.27;4.60;;;3.00;99.90;;;3.17;71.25;97794.66;5007816;28;20049;-46
2022/01/06 09:29:35;;;;;;;10.67;3.80;;;3.10;99.90;;;3.26;71.15;97796.66;5008744;28;20247;-46
2022/01/06 09:32:04;;;;;;;6.80;4.07;;;3.10;99.90;;;3.36;71.00;97807.34;5007247;28;20041;-49
2022/01/06 09:34:32;;;;;;;10.03;5.13;;;3.20;99.90;;;3.34;70.60;97807.44;5007403;28;20058;-47
2022/01/06 09:37:00;;;;;;;11.97;4.30;;;3.20;99.90;;;3.37;71.04;97805.53;5006670;28;20049;-49
2022/01/06 09:39:28;;;;;;;6.63;4.10;;;3.20;99.90;;;3.23;70.60;97807.38;5008053;28;20102;-49
2022/01/06 09:41:55;;;;;;;7.77;4.37;;;3.00;99.90;;;3.20;70.72;97810.25;5006060;28;20108;-48
2022/01/06 09:44:24;;;;;;;10.87;3.80;;;3.00;99.90;;;3.15;70.94;97807.09;5008600;28;20046;-48
2022/01/06 09:47:01;;;;;;;11.17;4.13;;;3.00;99.90;;;3.11;70.77;97816.16;5006764;28;20049;-47
2022/01/06 09:49:31;;;;;;;8.70;3.80;;;3.00;99.90;;;3.19;70.51;97818.25;5010303;28;20549;-48
2022/01/06 09:51:59;;;;;;;10.33;4.30;;;3.10;99.90;;;3.28;70.16;97826.31;5008400;28;20085;-48
2022/01/06 09:54:27;;;;;;;10.50;3.93;;;3.10;99.90;;;3.31;70.23;97827.88;5007353;28;20058;-47
2022/01/06 09:56:55;;;;;;;8.40;3.30;;;3.20;99.90;;;3.24;70.43;97824.00;5008210;28;20046;-48
2022/01/06 09:59:22;;;;;;;5.57;3.40;;;3.20;99.90;;;3.33;69.98;97816.31;5006222;28;20064;-49
2022/01/06 10:01:50;;;;;;;6.70;3.03;;;3.20;99.90;;;3.27;70.10;97821.16;5006763;28;20050;-47
2022/01/06 10:04:28;;;;;;;9.07;3.93;;;3.20;99.90;;;3.34;70.39;97820.59;5006979;28;20050;-49
2022/01/06 10:07:09;;;;;;;8.20;3.53;;;3.30;99.90;;;3.37;69.83;97822.16;5008278;28;20050;-46
2022/01/06 10:09:39;;;;;;;6.47;3.63;;;3.30;99.90;;;3.41;69.99;97820.97;4988968;28;20264;-51
2022/01/06 10:12:12;;;;;;;9.03;3.37;;;3.30;99.90;;;3.46;70.11;97826.75;4987837;28;20053;-46
2022/01/06 10:14:50;;;;;;;7.27;3.23;;;3.40;99.90;;;3.47;69.80;97827.59;4993242;28;20339;-50
2022/01/06 10:17:31;;;;;;;8.27;3.33;;;3.40;99.90;;;3.49;69.69;97831.81;5011169;28;20050;-47
2022/01/06 10:20:17;;;;;;;7.60;3.23;;;3.40;99.90;;;3.34;68.94;97828.50;5022438;28;20264;-48
2022/01/06 10:22:52;;;;;;;8.73;3.27;;;3.30;99.90;;;3.42;69.01;97832.38;5024894;28;20263;-46
2022/01/06 10:25:23;;;;;;;6.43;2.73;;;3.30;99.90;;;3.45;69.64;97833.00;5006385;28;20056;-48
2022/01/06 10:27:56;;;;;;;7.97;3.43;;;3.40;99.90;;;3.46;69.14;97829.41;5006625;28;20048;-48
2022/01/06 10:30:26;;;;;;;10.50;2.90;;;3.40;99.90;;;3.50;69.20;97835.28;5007923;28;20352;-47
2022/01/06 10:32:58;;;;;;;10.73;3.67;;;3.50;99.90;;;3.55;68.67;97835.78;5007186;28;20058;-50
2022/01/06 10:35:26;;;;;;;6.57;3.50;;;3.50;99.90;;;3.54;68.82;97829.66;5007858;28;20248;-49
2022/01/06 10:37:54;;;;;;;9.70;3.27;;;3.50;99.90;;;3.52;68.92;97831.56;5006766;28;20049;-47
2022/01/06 10:40:27;;;;;;;5.70;2.80;;;3.40;99.90;;;3.60;68.92;97838.06;5006930;28;20069;-49
2022/01/06 10:43:06;;;;;;;10.43;3.30;;;3.50;99.90;;;3.58;68.51;97832.09;5006903;28;20067;-47